createdAt,value
2022-09-12T00:01:09.217Z,14.08
2022-09-12T00:03:39.098Z,14.10
2022-09-12T00:06:22.628Z,14.11
2022-09-12T00:08:47.762Z,14.13
2022-09-12T00:11:15.915Z,14.09
2022-09-12T00:13:43.609Z,14.02
2022-09-12T00:16:20.183Z,13.95
2022-09-12T00:18:47.936Z,13.88
2022-09-12T00:21:16.473Z,13.83
2022-09-12T00:23:43.941Z,13.79
2022-09-12T00:26:11.507Z,13.77
2022-09-12T00:28:40.181Z,13.74
2022-09-12T00:31:13.121Z,13.71
2022-09-12T00:33:40.730Z,13.69
2022-09-12T00:36:14.861Z,13.68
2022-09-12T00:38:43.646Z,13.67
2022-09-12T00:41:14.683Z,13.68
2022-09-12T00:43:44.239Z,13.68
2022-09-12T00:46:18.314Z,13.70
2022-09-12T00:48:58.408Z,13.72
2022-09-12T00:51:26.246Z,13.75
2022-09-12T00:53:55.318Z,13.78
2022-09-12T00:56:23.911Z,13.80
2022-09-12T00:58:55.364Z,13.83
2022-09-12T01:01:23.105Z,13.83
2022-09-12T01:03:50.782Z,13.80
2022-09-12T01:06:24.726Z,13.77
2022-09-12T01:08:52.436Z,13.74
2022-09-12T01:11:20.934Z,13.74
2022-09-12T01:13:48.496Z,13.77
2022-09-12T01:16:16.275Z,13.79
2022-09-12T01:18:50.417Z,13.81
2022-09-12T01:21:53.423Z,13.84
2022-09-12T01:24:44.159Z,13.85
2022-09-12T01:27:48.821Z,13.88
2022-09-12T01:30:34.915Z,13.87
2022-09-12T01:33:05.908Z,13.83
2022-09-12T01:35:45.674Z,13.82
2022-09-12T01:38:31.935Z,13.82
2022-09-12T01:41:18.272Z,13.81
2022-09-12T01:43:50.211Z,13.82
2022-09-12T01:46:21.287Z,13.83
2022-09-12T01:48:51.990Z,13.85
2022-09-12T01:51:35.329Z,13.87
2022-09-12T01:54:11.603Z,13.88
2022-09-12T01:56:41.151Z,13.86
2022-09-12T01:59:11.837Z,13.88
2022-09-12T02:01:45.164Z,13.89
2022-09-12T02:04:31.134Z,13.90
2022-09-12T02:07:13.199Z,13.88
2022-09-12T02:09:56.806Z,13.80
2022-09-12T02:12:29.818Z,13.74
2022-09-12T02:14:59.945Z,13.66
2022-09-12T02:17:28.799Z,13.59
2022-09-12T02:20:03.116Z,13.53
2022-09-12T02:22:31.562Z,13.51
2022-09-12T02:25:00.513Z,13.51
2022-09-12T02:27:36.377Z,13.52
2022-09-12T02:30:05.745Z,13.57
2022-09-12T02:32:49.108Z,13.60
2022-09-12T02:35:43.431Z,13.61
2022-09-12T02:38:30.042Z,13.63
2022-09-12T02:40:57.582Z,13.64
2022-09-12T02:43:25.160Z,13.65
2022-09-12T02:45:53.576Z,13.64
2022-09-12T02:48:27.489Z,13.64
2022-09-12T02:50:54.901Z,13.65
2022-09-12T02:53:22.993Z,13.66
2022-09-12T02:55:51.440Z,13.67
2022-09-12T02:58:21.976Z,13.70
2022-09-12T03:01:27.109Z,13.74
2022-09-12T03:04:07.160Z,13.76
2022-09-12T03:06:47.056Z,13.77
2022-09-12T03:09:23.974Z,13.78
2022-09-12T03:11:54.814Z,13.78
2022-09-12T03:14:44.279Z,13.79
2022-09-12T03:17:15.374Z,13.81
2022-09-12T03:20:04.720Z,13.82
2022-09-12T03:22:48.122Z,13.80
2022-09-12T03:25:27.371Z,13.78
2022-09-12T03:28:06.820Z,13.76
2022-09-12T03:30:41.674Z,13.75
2022-09-12T03:33:15.022Z,13.76
2022-09-12T03:35:43.091Z,13.76
2022-09-12T03:38:10.672Z,13.77
2022-09-12T03:40:38.945Z,13.76
2022-09-12T03:43:07.934Z,13.77
2022-09-12T03:45:36.223Z,13.78
2022-09-12T03:48:05.574Z,13.80
2022-09-12T03:50:35.810Z,13.80
2022-09-12T03:53:04.275Z,13.83
2022-09-12T03:55:31.952Z,13.83
2022-09-12T03:57:59.502Z,13.84
2022-09-12T04:00:29.185Z,13.85
2022-09-12T04:02:57.225Z,13.87
2022-09-12T04:05:25.853Z,13.84
2022-09-12T04:07:53.557Z,13.83
2022-09-12T04:10:22.179Z,13.85
2022-09-12T04:12:49.412Z,13.85
2022-09-12T04:15:16.650Z,13.84
2022-09-12T04:17:44.070Z,13.81
2022-09-12T04:20:11.621Z,13.77
2022-09-12T04:22:45.270Z,13.75
2022-09-12T04:25:13.340Z,13.73
2022-09-12T04:27:43.314Z,13.72
2022-09-12T04:30:11.105Z,13.72
2022-09-12T04:32:38.627Z,13.71
2022-09-12T04:35:06.265Z,13.72
2022-09-12T04:37:33.732Z,13.71
2022-09-12T04:40:01.319Z,13.71
2022-09-12T04:42:29.507Z,13.71
2022-09-12T04:44:56.887Z,13.72
2022-09-12T04:47:24.319Z,13.75
2022-09-12T04:49:52.312Z,13.75
2022-09-12T04:52:20.305Z,13.78
2022-09-12T04:54:47.723Z,13.81
2022-09-12T04:57:15.147Z,13.86
2022-09-12T04:59:42.647Z,13.90
2022-09-12T05:02:10.029Z,13.91
2022-09-12T05:04:37.547Z,13.93
2022-09-12T05:07:05.381Z,13.94
2022-09-12T05:09:32.864Z,13.96
2022-09-12T05:12:04.347Z,13.98
2022-09-12T05:14:31.709Z,13.98
2022-09-12T05:17:00.928Z,14.02
2022-09-12T05:19:29.585Z,14.01
2022-09-12T05:21:56.836Z,14.02
2022-09-12T05:24:24.593Z,14.05
2022-09-12T05:26:51.996Z,14.07
2022-09-12T05:29:19.526Z,14.11
2022-09-12T05:31:48.956Z,14.15
2022-09-12T05:34:16.204Z,14.19
2022-09-12T05:36:43.852Z,14.23
2022-09-12T05:39:11.539Z,14.27
2022-09-12T05:41:38.886Z,14.33
2022-09-12T05:44:09.284Z,14.43
2022-09-12T05:46:38.687Z,14.51
2022-09-12T05:49:09.318Z,14.59
2022-09-12T05:51:39.279Z,14.66
2022-09-12T05:54:08.417Z,14.72
2022-09-12T05:56:40.762Z,14.79
2022-09-12T05:59:13.899Z,14.87
2022-09-12T06:01:41.775Z,14.93
2022-09-12T06:04:09.275Z,15.01
2022-09-12T06:06:40.936Z,15.03
2022-09-12T06:09:08.837Z,15.06
2022-09-12T06:11:37.421Z,15.09
2022-09-12T06:14:07.870Z,15.12
2022-09-12T06:16:36.724Z,15.12
2022-09-12T06:19:06.542Z,15.11
2022-09-12T06:21:39.328Z,15.13
2022-09-12T06:24:09.949Z,15.16
2022-09-12T06:26:37.467Z,15.08
2022-09-12T06:29:05.180Z,14.96
2022-09-12T06:31:34.693Z,14.97
2022-09-12T06:34:05.832Z,14.98
2022-09-12T06:36:36.547Z,14.99
2022-09-12T06:39:07.139Z,14.97
2022-09-12T06:41:34.788Z,14.96
2022-09-12T06:44:02.985Z,15.00
2022-09-12T06:46:33.174Z,15.22
2022-09-12T06:49:00.969Z,15.69
2022-09-12T06:51:28.751Z,16.40
2022-09-12T06:53:56.949Z,17.21
2022-09-12T06:56:26.615Z,17.78
2022-09-12T06:58:56.772Z,18.31
2022-09-12T07:01:27.241Z,18.78
2022-09-12T07:03:57.012Z,19.23
2022-09-12T07:06:29.001Z,19.09
2022-09-12T07:08:57.831Z,18.97
2022-09-12T07:11:27.392Z,18.89
2022-09-12T07:13:55.947Z,19.11
2022-09-12T07:16:23.330Z,19.28
2022-09-12T07:18:54.484Z,19.34
2022-09-12T07:21:22.134Z,19.45
2022-09-12T07:23:51.274Z,19.65
2022-09-12T07:26:18.773Z,19.78
2022-09-12T07:28:49.761Z,19.98
2022-09-12T07:31:18.600Z,20.16
2022-09-12T07:33:47.490Z,20.54
2022-09-12T07:36:16.918Z,20.79
2022-09-12T07:38:44.285Z,20.75
2022-09-12T07:41:17.246Z,20.90
2022-09-12T07:43:45.022Z,21.09
2022-09-12T07:46:13.836Z,21.06
2022-09-12T07:48:41.130Z,21.25
2022-09-12T07:51:10.313Z,21.63
2022-09-12T07:53:40.076Z,21.69
2022-09-12T07:56:09.830Z,21.34
2022-09-12T07:58:37.941Z,20.96
2022-09-12T08:01:17.212Z,20.92
2022-09-12T08:03:46.827Z,21.03
2022-09-12T08:06:19.746Z,21.14
2022-09-12T08:08:48.294Z,21.09
2022-09-12T08:11:17.600Z,21.26
2022-09-12T08:13:45.305Z,21.21
2022-09-12T08:16:15.917Z,21.41
2022-09-12T08:18:43.866Z,21.52
2022-09-12T08:21:14.715Z,21.28
2022-09-12T08:23:43.087Z,20.98
2022-09-12T08:26:11.624Z,20.96
2022-09-12T08:28:41.234Z,20.74
2022-09-12T08:31:11.080Z,20.48
2022-09-12T08:33:38.541Z,20.66
2022-09-12T08:36:17.266Z,20.79
2022-09-12T08:38:45.909Z,20.58
2022-09-12T08:41:46.006Z,20.38
2022-09-12T08:44:32.140Z,20.26
2022-09-12T08:47:17.690Z,20.53
2022-09-12T08:49:54.738Z,20.75
2022-09-12T08:52:34.902Z,20.90
2022-09-12T08:55:04.943Z,21.04
2022-09-12T08:57:32.981Z,21.30
2022-09-12T09:00:02.155Z,21.51
2022-09-12T09:02:39.529Z,21.64
2022-09-12T09:05:19.785Z,21.87
2022-09-12T09:07:56.444Z,21.96
2022-09-12T09:10:48.289Z,22.10
2022-09-12T09:13:21.000Z,22.26
2022-09-12T09:15:58.248Z,22.50
2022-09-12T09:18:34.519Z,22.27
2022-09-12T09:21:24.244Z,22.31
2022-09-12T09:23:55.266Z,22.26
2022-09-12T09:26:29.281Z,21.78
2022-09-12T09:29:12.394Z,21.45
2022-09-12T09:31:40.353Z,21.42
2022-09-12T09:34:15.188Z,21.62
2022-09-12T09:36:46.245Z,21.76
2022-09-12T09:39:29.448Z,21.92
2022-09-12T09:42:17.343Z,22.06
2022-09-12T09:44:48.368Z,21.95
2022-09-12T09:47:18.461Z,21.87
2022-09-12T09:49:46.773Z,22.06
2022-09-12T09:52:16.742Z,22.14
2022-09-12T09:54:51.476Z,22.35
2022-09-12T09:57:37.882Z,22.47
2022-09-12T10:00:27.071Z,22.54
2022-09-12T10:03:14.104Z,22.67
2022-09-12T10:05:49.730Z,22.72
2022-09-12T10:08:20.847Z,22.57
2022-09-12T10:11:08.729Z,22.61
2022-09-12T10:13:39.884Z,22.71
2022-09-12T10:16:21.651Z,22.48
2022-09-12T10:18:50.515Z,22.14
2022-09-12T10:21:41.189Z,22.07
2022-09-12T10:24:20.396Z,22.09
2022-09-12T10:27:00.420Z,22.02
2022-09-12T10:29:31.619Z,21.95
2022-09-12T10:32:07.789Z,21.95
2022-09-12T10:34:38.436Z,21.97
2022-09-12T10:37:37.654Z,22.01
2022-09-12T10:40:11.540Z,21.97
2022-09-12T10:42:53.513Z,21.86
2022-09-12T10:45:30.697Z,21.77
2022-09-12T10:48:05.493Z,21.72
2022-09-12T10:50:41.963Z,21.84
2022-09-12T10:53:21.362Z,21.86
2022-09-12T10:56:09.848Z,21.68
2022-09-12T10:59:05.193Z,21.41
2022-09-12T11:01:48.499Z,21.36
2022-09-12T11:04:20.468Z,21.26
2022-09-12T11:07:09.419Z,21.33
2022-09-12T11:09:59.084Z,21.42
2022-09-12T11:12:40.435Z,21.35
2022-09-12T11:15:25.101Z,21.40
2022-09-12T11:18:01.500Z,21.60
2022-09-12T11:20:53.790Z,21.72
2022-09-12T11:23:47.919Z,21.68
2022-09-12T11:26:22.987Z,21.43
2022-09-12T11:29:28.214Z,21.44
2022-09-12T11:32:07.905Z,21.39
2022-09-12T11:34:57.645Z,21.27
2022-09-12T11:37:34.255Z,21.09
2022-09-12T11:40:20.353Z,20.91
2022-09-12T11:42:49.517Z,20.94
2022-09-12T11:45:29.435Z,20.93
2022-09-12T11:47:59.492Z,20.90
2022-09-12T11:50:29.613Z,20.85
2022-09-12T11:53:12.725Z,20.87
2022-09-12T11:55:44.037Z,20.88
2022-09-12T11:58:11.502Z,20.99
2022-09-12T12:00:44.496Z,21.04
2022-09-12T12:03:24.523Z,21.05
2022-09-12T12:06:08.174Z,21.05
2022-09-12T12:08:42.191Z,20.93
2022-09-12T12:11:10.822Z,20.82
2022-09-12T12:13:46.740Z,20.93
2022-09-12T12:16:39.297Z,20.99
2022-09-12T12:19:20.147Z,20.91
2022-09-12T12:21:50.025Z,20.98
2022-09-12T12:24:24.793Z,20.93
2022-09-12T12:27:02.644Z,20.97
2022-09-12T12:29:41.558Z,20.96
2022-09-12T12:32:12.548Z,20.96
2022-09-12T12:34:45.140Z,20.97
2022-09-12T12:37:29.378Z,20.94
2022-09-12T12:40:04.866Z,21.07
2022-09-12T12:42:36.294Z,21.11
2022-09-12T12:45:10.675Z,21.21
2022-09-12T12:47:44.438Z,21.29
2022-09-12T12:50:25.533Z,21.39
2022-09-12T12:52:58.203Z,21.35
2022-09-12T12:55:33.630Z,21.19
2022-09-12T12:58:05.604Z,21.05
2022-09-12T13:00:35.502Z,20.91
2022-09-12T13:03:06.349Z,20.92
2022-09-12T13:05:46.473Z,20.84
2022-09-12T13:08:20.416Z,20.72
2022-09-12T13:10:56.444Z,20.63
2022-09-12T13:13:30.423Z,20.51
2022-09-12T13:15:58.616Z,20.47
2022-09-12T13:18:29.947Z,20.46
2022-09-12T13:21:16.214Z,20.44
2022-09-12T13:23:45.030Z,20.44
2022-09-12T13:26:16.383Z,20.37
2022-09-12T13:28:43.587Z,20.35
2022-09-12T13:31:17.318Z,20.23
2022-09-12T13:33:56.894Z,20.11
2022-09-12T13:36:33.808Z,20.12
2022-09-12T13:39:23.734Z,20.16
2022-09-12T13:42:06.995Z,20.22
2022-09-12T13:44:43.122Z,20.15
2022-09-12T13:47:13.991Z,19.96
2022-09-12T13:49:41.870Z,19.76
2022-09-12T13:52:18.241Z,19.67
2022-09-12T13:54:47.877Z,19.57
2022-09-12T13:57:40.643Z,19.50
2022-09-12T14:00:18.751Z,19.41
2022-09-12T14:02:47.405Z,19.30
2022-09-12T14:05:21.035Z,19.27
2022-09-12T14:07:57.996Z,19.26
2022-09-12T14:10:31.287Z,19.21
2022-09-12T14:12:59.887Z,19.14
2022-09-12T14:15:30.632Z,19.06
2022-09-12T14:18:01.081Z,18.99
2022-09-12T14:20:32.723Z,18.96
2022-09-12T14:23:05.952Z,18.94
2022-09-12T14:25:39.946Z,18.89
2022-09-12T14:28:10.358Z,18.88
2022-09-12T14:30:38.279Z,18.79
2022-09-12T14:33:15.570Z,18.78
2022-09-12T14:35:51.551Z,18.67
2022-09-12T14:38:35.818Z,18.51
2022-09-12T14:41:08.290Z,18.39
2022-09-12T14:43:44.224Z,18.38
2022-09-12T14:46:26.043Z,18.35
2022-09-12T14:48:57.813Z,18.28
2022-09-12T14:51:31.985Z,18.19
2022-09-12T14:54:01.693Z,18.16
2022-09-12T14:56:40.596Z,18.15
2022-09-12T14:59:30.501Z,18.16
2022-09-12T15:02:21.239Z,18.18
2022-09-12T15:04:52.464Z,18.07
2022-09-12T15:07:41.429Z,18.04
2022-09-12T15:10:24.954Z,18.01
2022-09-12T15:13:16.268Z,18.00
2022-09-12T15:15:57.991Z,18.02
2022-09-12T15:18:27.102Z,18.01
2022-09-12T15:20:57.135Z,17.89
2022-09-12T15:23:34.502Z,17.84
2022-09-12T15:26:02.403Z,17.79
2022-09-12T15:28:31.163Z,17.69
2022-09-12T15:31:01.870Z,17.62
2022-09-12T15:33:29.051Z,17.55
2022-09-12T15:35:56.339Z,17.49
2022-09-12T15:38:26.529Z,17.43
2022-09-12T15:40:54.046Z,17.45
2022-09-12T15:43:25.859Z,17.38
2022-09-12T15:45:59.207Z,17.31
2022-09-12T15:48:26.336Z,17.28
2022-09-12T15:50:53.431Z,17.23
2022-09-12T15:53:20.973Z,17.18
2022-09-12T15:55:48.048Z,17.14
2022-09-12T15:58:14.927Z,17.12
2022-09-12T16:00:42.124Z,17.07
2022-09-12T16:03:24.767Z,17.01
2022-09-12T16:05:58.757Z,16.95
2022-09-12T17:42:56.122Z,15.66
2022-09-12T17:45:23.595Z,15.63
2022-09-12T17:47:51.091Z,15.62
2022-09-12T17:50:31.347Z,15.60
2022-09-12T17:52:49.309Z,15.58
2022-09-12T17:55:16.895Z,15.55
2022-09-12T17:57:46.490Z,15.51
2022-09-12T18:00:15.911Z,15.48
2022-09-12T18:02:45.035Z,15.45
2022-09-12T18:05:13.604Z,15.39
2022-09-12T18:07:44.044Z,15.38
2022-09-12T18:10:11.608Z,15.37
2022-09-12T18:12:38.885Z,15.34
2022-09-12T18:15:07.720Z,15.32
2022-09-12T18:17:34.895Z,15.28
2022-09-12T18:20:02.423Z,15.24
2022-09-12T18:22:29.701Z,15.16
2022-09-12T18:24:57.050Z,15.11
2022-09-12T18:27:24.431Z,15.06
2022-09-12T18:30:04.478Z,15.00
2022-09-12T18:32:20.831Z,14.95
2022-09-12T18:34:48.274Z,14.91
2022-09-12T18:37:15.635Z,14.88
2022-09-12T18:39:43.057Z,14.84
2022-09-12T18:42:10.631Z,14.76
2022-09-12T18:44:37.739Z,14.69
2022-09-12T18:47:05.870Z,14.62
2022-09-12T18:49:35.131Z,14.57
2022-09-12T18:52:02.353Z,14.51
2022-09-12T18:54:29.480Z,14.46
2022-09-12T18:56:56.765Z,14.45
2022-09-12T18:59:24.159Z,14.42
2022-09-12T19:01:51.666Z,14.37
2022-09-12T19:04:19.174Z,14.36
2022-09-12T19:06:50.666Z,14.32
2022-09-12T19:09:22.715Z,14.31
2022-09-12T19:11:50.323Z,14.26
2022-09-12T19:14:22.055Z,14.24
2022-09-12T19:16:51.535Z,14.24
2022-09-12T19:19:19.151Z,14.22
2022-09-12T19:21:46.371Z,14.18
2022-09-12T19:24:14.118Z,14.17
2022-09-12T19:26:41.500Z,14.15
2022-09-12T19:29:10.294Z,14.12
2022-09-12T19:31:37.644Z,14.08
2022-09-12T19:34:06.415Z,14.04
2022-09-12T19:36:44.895Z,14.02
2022-09-12T19:39:07.740Z,13.99
2022-09-12T19:41:35.395Z,13.93
2022-09-12T19:44:03.787Z,13.87
2022-09-12T19:46:31.084Z,13.80
2022-09-12T19:48:58.483Z,13.74
2022-09-12T19:51:25.789Z,13.72
2022-09-12T19:53:53.187Z,13.68
2022-09-12T19:56:21.153Z,13.64
2022-09-12T19:58:55.039Z,13.59
2022-09-12T20:01:23.390Z,13.56
2022-09-12T20:03:52.659Z,13.51
2022-09-12T20:06:19.999Z,13.49
2022-09-12T20:08:47.175Z,13.47
2022-09-12T20:11:17.226Z,13.45
2022-09-12T20:13:45.486Z,13.39
2022-09-12T20:16:24.990Z,13.32
2022-09-12T20:18:58.076Z,13.22
2022-09-12T20:21:35.223Z,13.12
2022-09-12T20:24:13.384Z,13.03
2022-09-12T20:26:41.606Z,12.95
2022-09-12T20:29:09.566Z,12.92
2022-09-12T20:31:38.670Z,12.88
2022-09-12T20:34:06.781Z,12.86
2022-09-12T20:36:34.028Z,12.85
2022-09-12T20:39:02.467Z,12.84
2022-09-12T20:41:32.689Z,12.83
2022-09-12T20:43:59.860Z,12.74
2022-09-12T20:46:27.973Z,12.80
2022-09-12T20:48:55.380Z,12.77
2022-09-12T20:51:24.766Z,12.78
2022-09-12T20:53:57.652Z,12.75
2022-09-12T20:56:26.526Z,12.73
2022-09-12T20:58:54.442Z,12.69
2022-09-12T21:01:22.240Z,12.67
2022-09-12T21:03:49.922Z,12.63
2022-09-12T21:06:18.211Z,12.60
2022-09-12T21:08:46.648Z,12.59
2022-09-12T21:11:14.664Z,12.57
2022-09-12T21:13:42.067Z,12.56
2022-09-12T21:16:14.754Z,12.54
2022-09-12T21:18:42.314Z,12.54
2022-09-12T21:21:11.965Z,12.56
2022-09-12T21:23:39.501Z,12.55
2022-09-12T21:26:07.549Z,12.52
2022-09-12T21:28:34.769Z,12.51
2022-09-12T21:31:02.201Z,12.49
2022-09-12T21:33:29.601Z,12.46
2022-09-12T21:36:02.345Z,12.45
2022-09-12T21:38:30.490Z,12.44
2022-09-12T21:41:06.260Z,12.44
2022-09-12T21:43:34.166Z,12.39
2022-09-12T21:46:01.904Z,12.36
2022-09-12T21:48:29.263Z,12.34
2022-09-12T21:50:56.456Z,12.31
2022-09-12T21:53:24.045Z,12.30
2022-09-12T21:55:51.568Z,12.29
2022-09-12T21:58:19.058Z,12.26
2022-09-12T22:00:46.629Z,12.20
2022-09-12T22:03:14.882Z,12.16
2022-09-12T22:05:42.715Z,12.10
2022-09-12T22:08:11.202Z,12.04
2022-09-12T22:10:39.634Z,12.00
2022-09-12T22:13:07.536Z,11.96
2022-09-12T22:15:42.090Z,11.90
2022-09-12T22:18:04.699Z,11.85
2022-09-12T22:20:31.843Z,11.77
2022-09-12T22:23:22.420Z,11.71
2022-09-12T22:25:47.467Z,11.63
2022-09-12T22:28:15.413Z,11.53
2022-09-12T22:30:46.320Z,11.42
2022-09-12T22:33:13.900Z,11.31
2022-09-12T22:35:41.862Z,11.23
2022-09-12T22:38:09.390Z,11.17
2022-09-12T22:40:36.774Z,11.16
2022-09-12T22:43:04.253Z,11.12
2022-09-12T22:45:31.335Z,11.07
2022-09-12T22:48:00.763Z,11.00
2022-09-12T22:50:28.187Z,10.93
2022-09-12T22:52:55.562Z,10.88
2022-09-12T22:55:22.880Z,10.85
2022-09-12T22:57:50.071Z,10.81
2022-09-12T23:00:18.910Z,10.75
2022-09-12T23:02:46.126Z,10.70
2022-09-12T23:05:13.645Z,10.67
2022-09-12T23:07:40.943Z,10.65
2022-09-12T23:10:09.151Z,10.65
2022-09-12T23:12:36.586Z,10.64
2022-09-12T23:15:05.411Z,10.61
2022-09-12T23:17:34.994Z,10.58
2022-09-12T23:20:02.115Z,10.56
2022-09-12T23:22:29.483Z,10.51
2022-09-12T23:24:57.128Z,10.46
2022-09-12T23:27:27.416Z,10.42
2022-09-12T23:29:54.645Z,10.38
2022-09-12T23:32:22.072Z,10.37
2022-09-12T23:34:49.551Z,10.34
2022-09-12T23:37:16.970Z,10.28
2022-09-12T23:39:44.850Z,10.25
2022-09-12T23:42:12.277Z,10.22
2022-09-12T23:44:39.729Z,10.17
2022-09-12T23:47:07.011Z,10.12
2022-09-12T23:49:34.476Z,10.06
2022-09-12T23:52:02.011Z,10.03
2022-09-12T23:54:29.632Z,10.01
2022-09-12T23:56:57.179Z,10.01
2022-09-12T23:59:24.731Z,10.00
